• Join FlightAware (Why Join?)
  • Login
  • US Flag 
04:14PM EST


 

Airport Tracker/Info


-or-


 

Live Flight TrackerFlight Track Log ✈ N6913S ✈ 05-May-2013 ✈ KSBY - KSFZ

Flight Track Log - Related Links

Times and Time Zones

All times are in EDT time to prevent confusion due to time zone crossing. See the N6913S flight status page for this flight to view local times or setup timezone preferences in your user account.

Time Position Orientation Groundspeed Altitude Reporting Facility
EDT Latitude Longitude Course Direction KTS MPH feet Rate Location/Type
06:58PM 38.3650 -75.5017 30° Northeast 82 94 1,600  Level Washington Center
06:59PM 38.3858 -75.4936 17° North 83 96 2,500 840 Climbing Washington Center
07:00PM 38.4067 -75.4778 31° Northeast 86 99 3,400 840 Climbing Washington Center
07:01PM 38.4294 -75.4619 29° Northeast 91 105 4,300 720 Climbing Washington Center
07:03PM 38.4681 -75.4167 North  Level FlightAware Approximate
07:03PM 38.4733 -75.4272 North 130 150 5,500  Level Washington Center
07:04PM 38.3498 -75.5024 30° Northeast  Level FlightAware Approximate
07:04PM 38.5003 -75.4086 28° Northeast 108 124 6,200  Level Washington Center
07:05PM 38.5294 -75.3953 20° North 102 117 7,200 420 Climbing Washington Center
07:06PM 38.5525 -75.3767 32° Northeast 98 113 7,100  Descending Washington Center
07:07PM 38.5942 -75.3472 29° Northeast 141 162 7,200  Climbing Washington Center
07:08PM 38.6211 -75.3286 28° Northeast 130 150 7,200  Level Washington Center
07:09PM 38.6647 -75.3072 21° North 143 165 7,200  Level Washington Center
07:10PM 38.6961 -75.2858 28° Northeast 134 154 7,200  Level Washington Center
07:11PM 38.7294 -75.2644 27° Northeast 134 154 7,200  Level Washington Center
07:12PM 38.7669 -75.2428 24° Northeast 134 154 7,200  Level Washington Center
07:13PM 38.8022 -75.2214 25° Northeast 134 154 7,200  Level Washington Center
07:13PM 38.8106 -75.2186 15° North 142 163 7,200 -60 Level Washington Center
07:16PM 38.8808 -75.1726 27° Northeast  Level FlightAware Approximate
07:22PM 39.1039 -75.0486 23° Northeast 139 160 7,100  Level Washington Center
07:23PM 39.1122 -75.0243 23° Northeast  Level FlightAware Approximate
07:24PM 39.1463 -75.0059 23° Northeast  Level FlightAware Approximate
07:24PM 39.1683 -75.0052 28° Northeast  Level FlightAware Approximate
07:25PM 39.1804 -74.9876 23° Northeast  Level FlightAware Approximate
07:25PM 39.2328 -74.9781 28° Northeast 143 165 7,100  Level Washington Center
07:26PM 39.2145 -74.9692 23° Northeast  Level FlightAware Approximate
07:27PM 39.2717 -74.9298 36° Northeast  Level FlightAware Approximate
07:27PM 39.2486 -74.9508 23° Northeast  Level FlightAware Approximate
07:30PM 39.3694 -74.8533 38° Northeast 143 165 7,100  Level Washington Center
07:32PM 39.4264 -74.7937 39° Northeast  Level FlightAware Approximate
07:34PM 39.4815 -74.7340 36° Northeast  Level FlightAware Approximate
07:35PM 39.5112 -74.7055 38° Northeast  Level FlightAware Approximate
07:39PM 39.5187 -74.6980 38° Northeast  Level FlightAware Approximate
07:40PM 39.5480 -74.6687 38° Northeast  Level FlightAware Approximate
07:41PM 39.5773 -74.6395 38° Northeast  Level FlightAware Approximate
07:42PM 39.6065 -74.6102 38° Northeast  Level FlightAware Approximate
07:43PM 39.6358 -74.5809 38° Northeast  Level FlightAware Approximate
07:44PM 39.6650 -74.5517 38° Northeast  Level FlightAware Approximate
07:45PM 39.6955 -74.5245 34° Northeast  Level FlightAware Approximate
07:46PM 39.7260 -74.4974 34° Northeast  Level FlightAware Approximate
07:47PM 39.7565 -74.4703 34° Northeast  Level FlightAware Approximate
07:48PM 39.7869 -74.4432 34° Northeast  Level FlightAware Approximate
07:49PM 39.8174 -74.4160 35° Northeast  Level FlightAware Approximate
07:50PM 39.8477 -74.3885 35° Northeast  Level FlightAware Approximate
07:50PM 40.0167 -74.2500 37° Northeast 137 158 7,100  Level New York TRACON
07:51PM 39.8780 -74.3610 35° Northeast  Level FlightAware Approximate
07:51PM 40.0500 -74.2167 37° Northeast 138 159 7,100  Level New York TRACON
07:52PM 39.9083 -74.3335 35° Northeast  Level FlightAware Approximate
07:52PM 40.0833 -74.1833 37° Northeast 144 166 7,100  Level New York TRACON
07:53PM 39.9386 -74.3059 35° Northeast  Level FlightAware Approximate
07:53PM 40.1167 -74.1667 21° North 137 158 7,100  Level New York TRACON
07:54PM 39.9689 -74.2784 35° Northeast  Level FlightAware Approximate
07:54PM 40.1500 -74.1333 37° Northeast 138 159 7,100  Level New York TRACON
07:55PM 39.9992 -74.2508 35° Northeast  Level FlightAware Approximate
07:55PM 40.1833 -74.1167 21° North 136 157 7,100  Level New York TRACON
07:56PM 40.0285 -74.2215 37° Northeast  Level FlightAware Approximate
07:56PM 40.2167 -74.0833 37° Northeast 140 161 7,100  Level New York TRACON
07:57PM 40.2500 -74.0667 21° North 139 160 7,100  Level New York TRACON
07:58PM 40.2833 -74.0500 21° North 141 162 7,100  Level New York TRACON
07:59PM 40.3167 -74.0500 360° North 140 161 7,100  Level New York TRACON
08:00PM 40.3500 -74.0333 21° North 138 159 7,100  Level New York TRACON
08:01PM 40.4000 -74.0333 360° North 139 160 7,100  Level New York TRACON
08:02PM 40.4333 -74.0167 21° North 138 159 7,100  Level New York TRACON
08:03PM 40.4667 -74.0000 21° North 137 158 7,100  Level New York TRACON
08:04PM 40.5000 -73.9833 21° North 133 153 7,100  Level New York TRACON
08:05PM 40.5333 -73.9500 37° Northeast 134 154 7,100  Level New York TRACON
08:06PM 40.5667 -73.9167 37° Northeast 133 153 7,100  Level New York TRACON
08:07PM 40.5833 -73.8833 57° Northeast 131 151 7,100  Level New York TRACON
08:08PM 40.6000 -73.8500 57° Northeast 129 148 7,100  Level New York TRACON
08:09PM 40.6167 -73.8000 66° East 119 137 7,100  Level New York TRACON
08:10PM 40.6333 -73.7667 57° Northeast 110 127 7,100  Level New York TRACON
08:11PM 40.6667 -73.7333 37° Northeast 116 133 7,100  Level New York TRACON
08:12PM 40.7000 -73.7000 37° Northeast 129 148 7,100  Level New York TRACON
08:13PM 40.7333 -73.6667 37° Northeast 133 153 7,100  Level New York TRACON
08:14PM 40.7500 -73.6333 57° Northeast 133 153 7,100  Level New York TRACON
08:15PM 40.7833 -73.6000 37° Northeast 134 154 7,100  Level New York TRACON
08:16PM 40.8167 -73.5833 21° North 136 157 7,100  Level New York TRACON
08:17PM 40.8333 -73.5333 66° East 135 155 7,100  Level New York TRACON
08:18PM 40.8500 -73.4833 66° East 132 152 7,100  Level New York TRACON
08:19PM 40.8500 -73.4333 90° East 129 148 7,100  Level New York TRACON
08:20PM 40.8667 -73.4000 57° Northeast 130 150 7,100  Level New York TRACON
08:21PM 40.8833 -73.3667 57° Northeast 133 153 7,100  Level New York TRACON
08:22PM 40.9000 -73.3333 57° Northeast 133 153 7,100  Level New York TRACON
08:23PM 40.9333 -73.2833 49° Northeast 135 155 7,100  Level New York TRACON
08:24PM 40.9500 -73.2500 56° Northeast 134 154 7,100  Level New York TRACON
08:25PM 40.9833 -73.2167 37° Northeast 131 151 7,100  Level New York TRACON
08:26PM 41.0000 -73.1833 56° Northeast 135 155 7,100  Level New York TRACON
08:27PM 41.0333 -73.1500 37° Northeast 133 153 7,100  Level New York TRACON
08:28PM 41.0500 -73.1000 66° East 132 152 7,100  Level New York TRACON
08:29PM 41.0833 -73.0667 37° Northeast 132 152 7,100  Level New York TRACON
08:30PM 41.1000 -73.0333 56° Northeast 132 152 7,100  Level New York TRACON
08:31PM 41.1333 -73.0000 37° Northeast 133 153 7,100  Level New York TRACON
08:32PM 41.1500 -72.9667 56° Northeast 133 153 7,100  Level New York TRACON
08:33PM 41.1667 -72.9167 66° East 132 152 7,100  Level New York TRACON
08:34PM 41.2000 -72.8833 37° Northeast 131 151 7,100  Level New York TRACON
08:35PM 41.2167 -72.8500 56° Northeast 132 152 7,100  Level New York TRACON
08:36PM 41.2333 -72.8000 66° East 130 150 7,100  Level New York TRACON
08:37PM 41.2667 -72.7667 37° Northeast 134 154 7,100  Level New York TRACON
08:38PM 41.2833 -72.7333 56° Northeast 131 151 7,100  Level New York TRACON
08:39PM 41.3167 -72.7000 37° Northeast 134 154 7,100  Level New York TRACON
08:40PM 41.3333 -72.6500 66° East 135 155 7,100  Level New York TRACON
08:41PM 41.3500 -72.6000 66° East 133 153 7,100  Level New York TRACON
08:42PM 41.3667 -72.5667 56° Northeast 133 153 7,100  Level New York TRACON
08:43PM 41.3728 -72.5397 73° East 132 152 7,100  Level Boston Center
08:43PM 41.3731 -72.5203 89° East 130 150 7,100  Level Boston Center
08:44PM 41.3667 -72.4761 101° East 131 151 7,100  Level Boston Center
08:45PM 41.3897 -72.4344 54° Northeast 133 153 7,100  Level Boston Center
08:46PM 41.4125 -72.3958 52° Northeast 132 152 7,100  Level Boston Center
08:47PM 41.4356 -72.3597 50° Northeast 132 152 7,100  Level Boston Center
08:48PM 41.4606 -72.3156 53° Northeast 133 153 7,100  Level Boston Center
08:49PM 41.4833 -72.2794 50° Northeast 133 153 7,100  Level Boston Center
08:50PM 41.5042 -72.2406 54° Northeast 133 153 7,100  Level Boston Center
08:51PM 41.5269 -72.2017 52° Northeast 134 154 7,100  Level Boston Center
08:53PM 41.5519 -72.1600 51° Northeast 133 153 7,100  Level Boston Center
08:53PM 41.5725 -72.1236 53° Northeast 132 152 7,100 -300 Level Boston Center
08:54PM 41.5953 -72.0819 54° Northeast 128 147 6,600 -600 Descending Boston Center
08:55PM 41.6139 -72.0458 55° Northeast 125 144 5,900 -720 Descending Boston Center
08:57PM 41.6367 -72.0011 56° Northeast 124 143 5,200 -660 Descending Boston Center
08:58PM 41.6553 -71.9650 55° Northeast 122 140 4,600 -600 Descending Boston Center
08:59PM 41.6781 -71.9314 48° Northeast 115 132 4,000 -540 Descending Boston Center
09:01PM 41.7153 -71.8700 51° Northeast 110 127 3,100 -300 Descending Boston Center
09:02PM 41.7361 -71.8364 50° Northeast 110 127 3,100  Level Boston Center
09:03PM 41.7547 -71.8028 53° Northeast 113 130 3,100 -180 Level Boston Center
09:04PM 41.7731 -71.7664 56° Northeast 118 136 2,800 -480 Descending Boston Center
09:05PM 41.7939 -71.7272 54° Northeast 128 147 2,200 -300 Descending Boston Center
09:06PM 41.8144 -71.6908 53° Northeast 116 133 2,200  Level Boston Center
09:07PM 41.8267 -71.6544 66° East 110 127 2,200  Level Boston Center
09:08PM 41.8389 -71.6181 66° East 110 127 2,200  Level Boston Center
09:09PM 41.8511 -71.5761 69° East 109 125 2,200  Level Boston Center